Flight Track Log - Related Links

Times and Time Zones

All times are in EDT time to prevent confusion due to time zone crossing. See the KAP46 flight status page for this flight to view local times or setup timezone preferences in your user account.

Time Position Orientation Groundspeed Altitude Reporting Facility
EDT Latitude Longitude Course Direction KTS MPH feet Rate Location/Type
Sat 07:33:52 AM 44.6900 -74.6592 167° South 150 173 5,900  Level Boston Center
Sat 07:34:52 AM 44.6531 -74.6344 155° Southeast 150 173 6,400 550 Climbing Boston Center
Sat 07:35:52 AM 44.6181 -74.6158 159° South 150 173 7,000 350 Climbing Boston Center
Sat 07:36:52 AM 44.5767 -74.5939 159° South 150 173 7,100  Climbing Boston Center
Sat 07:37:53 AM 44.5292 -74.5775 166° South 155 178 7,000 -49 Descending Boston Center
Sat 07:38:00 AM 44.8165 -74.7762 158° South  Level FlightAware Approximate
Sat 07:38:54 AM 44.4836 -74.5583 163° South 166 191 7,000  Level Boston Center
Sat 07:39:00 AM 44.7867 -74.7622 167° South  Level FlightAware Approximate
Sat 07:39:54 AM 44.4400 -74.5481 170° South 166 191 6,900  Level Boston Center
Sat 07:40:53 AM 44.3944 -74.5292 163° South 166 191 7,000  Climbing Boston Center
Sat 07:41:54 AM 44.3489 -74.5100 163° South 161 185 6,900  Descending Boston Center
Sat 07:42:51 AM 44.3075 -74.4942 165° South 161 185 7,000 50 Climbing Boston Center
Sat 07:43:53 AM 44.2664 -74.4722 159° South 161 185 7,000 49 Level Boston Center
Sat 07:44:54 AM 44.2250 -74.4506 159° South 168 193 7,100 50 Climbing Boston Center
Sat 07:45:54 AM 44.1794 -74.4289 161° South 168 193 7,100  Level Boston Center
Sat 07:46:52 AM 44.1361 -74.4072 160° South 163 188 7,100  Level Boston Center
Sat 07:47:52 AM 44.0928 -74.3883 163° South 163 188 7,100 -49 Level Boston Center
Sat 07:48:54 AM 44.0492 -74.3725 165° South 168 193 7,000  Descending Boston Center
Sat 07:49:52 AM 44.0017 -74.3536 164° South 163 188 7,100  Climbing Boston Center
Sat 07:50:53 AM 43.9581 -74.3378 165° South 163 188 7,000  Descending Boston Center
Sat 07:51:54 AM 43.9147 -74.3133 158° South 163 188 7,100 51 Climbing Boston Center
Sat 07:52:51 AM 43.8714 -74.2919 160° South 163 188 7,100  Level Boston Center
Sat 07:53:52 AM 43.8258 -74.2761 166° South 163 188 7,100  Level Boston Center
Sat 07:54:53 AM 43.7803 -74.2575 164° South 163 188 7,100  Level Boston Center
Sat 07:55:53 AM 43.7389 -74.2361 160° South 163 188 7,100  Level Boston Center
Sat 07:56:51 AM 43.6933 -74.2147 161° South 163 188 7,100  Level Boston Center
Sat 07:57:52 AM 43.6500 -74.1933 160° South 163 188 7,100  Level Boston Center
Sat 07:58:52 AM 43.6044 -74.1719 161° South 163 188 7,100 50 Level Boston Center
Sat 07:59:53 AM 43.5608 -74.1592 168° South 163 188 7,200  Climbing Boston Center
Sat 08:00:54 AM 43.5153 -74.1378 161° South 163 188 7,100 -118 Descending Boston Center
Sat 08:01:35 AM 43.4800 -74.1283 169° South 172 198 7,000 -70 Descending Boston Center
Sat 08:02:20 AM 43.4489 -74.1158 164° South 171 197 7,000 77 Level Boston Center
Sat 08:02:53 AM 43.4242 -74.1011 157° South 163 188 7,100  Climbing Boston Center
Sat 08:03:54 AM 43.3806 -74.0825 163° South 168 193 7,000 -50 Descending Boston Center
Sat 08:04:52 AM 43.3414 -74.0617 159° South 168 193 7,000 68 Level Boston Center
Sat 08:05:22 AM 43.3164 -74.0525 165° South 170 196 7,100  Climbing Boston Center
Sat 08:05:52 AM 43.2917 -74.0347 152° Southeast 168 193 7,000 -200 Descending Boston Center
Sat 08:06:22 AM 43.2750 -74.0256 158° South 171 197 6,900 -300 Descending Boston Center
Sat 08:06:52 AM 43.2503 -74.0136 161° South 168 193 6,700 -300 Descending Boston Center
Sat 08:07:22 AM 43.2233 -74.0014 162° South 181 208 6,600 -400 Descending Boston Center
Sat 08:07:52 AM 43.1986 -73.9894 161° South 173 199 6,300 -358 Descending Boston Center
Sat 08:08:29 AM 43.1672 -73.9831 172° South 185 213 6,200 -66 Descending Boston Center
Sat 08:09:23 AM 43.1217 -73.9706 169° South 182 209 6,200 -141 Level Boston Center
Sat 08:09:54 AM 43.1008 -73.9586 157° South 181 208 6,000 -393 Descending Boston Center
Sat 08:10:24 AM 43.0761 -73.9494 165° South 181 208 5,800 -462 Descending Boston Center
Sat 08:11:25 AM 43.0242 -73.9283 163° South 189 217 5,300 -590 Descending Boston Center
Sat 08:12:26 AM 42.9722 -73.9242 177° South 193 222 4,600 -531 Descending Boston Center
Sat 08:13:18 AM 42.9244 -73.9203 177° South 189 217 4,300 -282 Descending Boston Center
Sat 08:13:51 AM 42.8953 -73.9139 171° South 186 214 4,200 -171 Descending Boston Center
Sat 08:14:28 AM 42.8681 -73.9131 179° South 173 199 4,100 -309 Descending Boston Center
Sat 08:15:28 AM 42.8225 -73.9008 169° South 168 193 3,700 -474 Descending Boston Center
Sat 08:16:22 AM 42.7769 -73.8769 159° South 182 209 3,200 -579 Descending Boston Center
Sat 08:17:22 AM 42.7311 -73.8619 166° South 181 208 2,600 -650 Descending Boston Center
Sat 08:18:22 AM 42.6919 -73.8356 154° Southeast 168 193 1,900 -787 Descending Boston Center
Sat 08:19:24 AM 42.7111 -73.8078 47° Northeast 120 138 1,000 -871 Descending Boston Center
Sat 08:21:00 AM 42.7333 -73.8000 170° South  Level FlightAware Approximate
Sat 08:28:00 AM 42.7491 -73.8020 170° South  Level Estimated
Sat 08:29:00 AM 42.7491 -73.8020 170° South  Level Estimated
Sat 08:30:00 AM 42.7491 -73.8020 170° South  Level Estimated

Login

Don't have an account? Register now (free) for customized features, flight alerts, and more!